Douglas, North Dakota
Current Conditions -  °F | °C
As of 12:54 AM on Sunday 23 Nov 2014 (Local Time) from KMOT Reporting Station
Clear Clear  
Wind Chill: -1°   Ceiling: Unl
Heat Index:   Visibility: 10mi
Dew Point: -2°   Wind: 17mph
Humidity: 63%   Direction: 230°SW
Pressure: 29.27"   Gusts: 23mph
Location:  47.86°N, 101.5°W
Report Text: KMOT 230654Z AUTO 23015G20KT 10SM CLR 04/M02 A2927 RMK AO2 SLP924 T00441022
Loading
Personal Weather Stations






























Interactive Weather Map New forecast layout! Learn more

10-Day Weather Forecast

Advertisements
Track Severe Weather on mobile